sensor_id;sensor_type;location;lat;lon;timestamp;pressure;altitude;pressure_sealevel;temperature;humidity
12215;BME280;6170;42.206;24.142;2023-02-12T00:01:37;99872.69;;;-1.50;61.58
12215;BME280;6170;42.206;24.142;2023-02-12T00:04:05;99884.09;;;-1.63;63.27
12215;BME280;6170;42.206;24.142;2023-02-12T00:06:32;99879.59;;;-1.61;63.47
12215;BME280;6170;42.206;24.142;2023-02-12T00:08:59;99880.31;;;-1.32;62.21
12215;BME280;6170;42.206;24.142;2023-02-12T00:11:28;99869.91;;;-1.34;61.91
12215;BME280;6170;42.206;24.142;2023-02-12T00:13:55;99860.09;;;-1.45;61.76
12215;BME280;6170;42.206;24.142;2023-02-12T00:16:25;99869.34;;;-1.00;60.51
12215;BME280;6170;42.206;24.142;2023-02-12T00:18:53;99875.47;;;-0.86;60.87
12215;BME280;6170;42.206;24.142;2023-02-12T00:21:23;99846.22;;;-1.73;62.98
12215;BME280;6170;42.206;24.142;2023-02-12T00:23:49;99867.09;;;-1.18;62.35
12215;BME280;6170;42.206;24.142;2023-02-12T00:26:18;99853.78;;;-1.15;62.53
12215;BME280;6170;42.206;24.142;2023-02-12T00:28:45;99859.84;;;-1.15;63.03
12215;BME280;6170;42.206;24.142;2023-02-12T00:31:14;99847.22;;;-1.22;63.27
12215;BME280;6170;42.206;24.142;2023-02-12T00:33:41;99840.41;;;-1.12;62.74
12215;BME280;6170;42.206;24.142;2023-02-12T00:36:12;99843.13;;;-1.01;62.38
12215;BME280;6170;42.206;24.142;2023-02-12T00:38:40;99836.63;;;-1.08;62.92
12215;BME280;6170;42.206;24.142;2023-02-12T00:41:07;99835.16;;;-1.00;62.19
12215;BME280;6170;42.206;24.142;2023-02-12T00:43:34;99837.56;;;-1.09;62.56
12215;BME280;6170;42.206;24.142;2023-02-12T00:46:01;99858.13;;;-0.76;61.96
12215;BME280;6170;42.206;24.142;2023-02-12T00:48:27;99836.22;;;-1.02;62.00
12215;BME280;6170;42.206;24.142;2023-02-12T00:50:54;99828.53;;;-0.93;61.66
12215;BME280;6170;42.206;24.142;2023-02-12T00:53:21;99884.53;;;-0.78;62.22
12215;BME280;6170;42.206;24.142;2023-02-12T00:55:50;99833.00;;;-1.32;62.88
12215;BME280;6170;42.206;24.142;2023-02-12T00:58:16;99838.44;;;-1.48;63.59
12215;BME280;6170;42.206;24.142;2023-02-12T01:00:43;99835.47;;;-1.56;63.77
12215;BME280;6170;42.206;24.142;2023-02-12T01:03:10;99839.03;;;-1.57;64.13
12215;BME280;6170;42.206;24.142;2023-02-12T01:05:37;99830.31;;;-1.58;64.21
12215;BME280;6170;42.206;24.142;2023-02-12T01:08:04;99826.66;;;-1.82;64.72
12215;BME280;6170;42.206;24.142;2023-02-12T01:10:31;99827.47;;;-1.55;63.66
12215;BME280;6170;42.206;24.142;2023-02-12T01:12:59;99815.44;;;-1.32;60.52
12215;BME280;6170;42.206;24.142;2023-02-12T01:15:26;99808.84;;;-0.87;56.08
12215;BME280;6170;42.206;24.142;2023-02-12T01:17:53;99807.06;;;-0.12;53.85
12215;BME280;6170;42.206;24.142;2023-02-12T01:20:21;99790.34;;;0.13;52.03
12215;BME280;6170;42.206;24.142;2023-02-12T01:22:49;99793.94;;;0.70;50.52
12215;BME280;6170;42.206;24.142;2023-02-12T01:25:16;99785.19;;;0.81;49.53
12215;BME280;6170;42.206;24.142;2023-02-12T01:27:43;99785.97;;;1.05;48.83
12215;BME280;6170;42.206;24.142;2023-02-12T01:30:13;99789.81;;;1.01;49.62
12215;BME280;6170;42.206;24.142;2023-02-12T01:32:40;99799.16;;;1.16;49.26
12215;BME280;6170;42.206;24.142;2023-02-12T01:35:07;99769.88;;;1.08;49.40
12215;BME280;6170;42.206;24.142;2023-02-12T01:37:36;99762.78;;;0.98;49.21
12215;BME280;6170;42.206;24.142;2023-02-12T01:40:04;99764.50;;;1.10;48.69
12215;BME280;6170;42.206;24.142;2023-02-12T01:42:32;99750.22;;;1.12;47.96
12215;BME280;6170;42.206;24.142;2023-02-12T01:48:16;99731.69;;;0.68;50.13
12215;BME280;6170;42.206;24.142;2023-02-12T01:50:45;99735.78;;;0.37;51.00
12215;BME280;6170;42.206;24.142;2023-02-12T01:53:14;99753.25;;;0.27;52.21
12215;BME280;6170;42.206;24.142;2023-02-12T01:55:48;99740.25;;;0.13;52.22
12215;BME280;6170;42.206;24.142;2023-02-12T01:58:16;99737.97;;;0.08;53.66
12215;BME280;6170;42.206;24.142;2023-02-12T02:00:43;99747.13;;;-0.21;53.33
12215;BME280;6170;42.206;24.142;2023-02-12T02:03:10;99756.63;;;-0.55;54.85
12215;BME280;6170;42.206;24.142;2023-02-12T02:05:42;99752.53;;;-0.72;55.86
12215;BME280;6170;42.206;24.142;2023-02-12T02:08:11;99794.06;;;-0.39;55.11
12215;BME280;6170;42.206;24.142;2023-02-12T02:10:38;99754.38;;;-0.49;54.90
12215;BME280;6170;42.206;24.142;2023-02-12T02:13:05;99745.16;;;-0.30;54.34
12215;BME280;6170;42.206;24.142;2023-02-12T02:15:55;99765.56;;;-0.21;53.44
12215;BME280;6170;42.206;24.142;2023-02-12T02:18:28;99763.53;;;-0.05;53.35
12215;BME280;6170;42.206;24.142;2023-02-12T02:24:15;99753.97;;;0.05;53.04
12215;BME280;6170;42.206;24.142;2023-02-12T02:26:58;99758.97;;;-0.03;52.60
12215;BME280;6170;42.206;24.142;2023-02-12T02:32:37;99759.91;;;0.09;52.54
12215;BME280;6170;42.206;24.142;2023-02-12T02:35:10;99756.34;;;0.21;51.92
12215;BME280;6170;42.206;24.142;2023-02-12T02:37:43;99809.34;;;0.53;52.01
12215;BME280;6170;42.206;24.142;2023-02-12T02:40:15;99759.22;;;0.53;50.99
12215;BME280;6170;42.206;24.142;2023-02-12T02:42:46;99747.19;;;0.83;49.69
12215;BME280;6170;42.206;24.142;2023-02-12T02:45:20;99751.41;;;0.97;49.32
12215;BME280;6170;42.206;24.142;2023-02-12T02:47:54;99742.91;;;1.05;48.97
12215;BME280;6170;42.206;24.142;2023-02-12T02:50:23;99777.19;;;0.48;52.04
12215;BME280;6170;42.206;24.142;2023-02-12T02:52:54;99789.53;;;0.47;53.11
12215;BME280;6170;42.206;24.142;2023-02-12T02:55:25;99734.94;;;0.25;52.56
12215;BME280;6170;42.206;24.142;2023-02-12T02:57:55;99762.97;;;0.26;52.75
12215;BME280;6170;42.206;24.142;2023-02-12T03:00:25;99750.81;;;0.13;53.53
12215;BME280;6170;42.206;24.142;2023-02-12T03:03:00;99768.00;;;0.06;53.30
12215;BME280;6170;42.206;24.142;2023-02-12T03:05:31;99757.47;;;-0.55;55.66
12215;BME280;6170;42.206;24.142;2023-02-12T03:08:05;99773.94;;;-0.27;54.90
12215;BME280;6170;42.206;24.142;2023-02-12T03:10:38;99783.00;;;-0.44;56.25
12215;BME280;6170;42.206;24.142;2023-02-12T03:13:08;99785.13;;;-0.36;56.42
12215;BME280;6170;42.206;24.142;2023-02-12T03:15:38;99764.47;;;-0.42;56.87
12215;BME280;6170;42.206;24.142;2023-02-12T03:18:11;99784.94;;;-0.10;55.82
12215;BME280;6170;42.206;24.142;2023-02-12T03:20:45;99776.16;;;-0.34;56.61
12215;BME280;6170;42.206;24.142;2023-02-12T03:23:17;99786.25;;;-0.04;56.12
12215;BME280;6170;42.206;24.142;2023-02-12T03:25:51;99784.84;;;0.16;55.26
12215;BME280;6170;42.206;24.142;2023-02-12T03:28:21;99785.28;;;0.33;54.92
12215;BME280;6170;42.206;24.142;2023-02-12T03:30:55;99779.22;;;0.44;54.36
12215;BME280;6170;42.206;24.142;2023-02-12T03:33:31;99810.13;;;0.42;54.83
12215;BME280;6170;42.206;24.142;2023-02-12T03:36:06;99728.19;;;0.21;54.10
12215;BME280;6170;42.206;24.142;2023-02-12T03:38:37;99789.56;;;0.58;54.23
12215;BME280;6170;42.206;24.142;2023-02-12T03:41:10;99844.19;;;0.80;55.67
12215;BME280;6170;42.206;24.142;2023-02-12T03:43:47;99791.75;;;0.40;57.06
12215;BME280;6170;42.206;24.142;2023-02-12T03:46:19;99780.75;;;0.70;56.36
12215;BME280;6170;42.206;24.142;2023-02-12T03:48:57;99772.69;;;0.37;55.54
12215;BME280;6170;42.206;24.142;2023-02-12T03:51:29;99764.63;;;0.27;55.51
12215;BME280;6170;42.206;24.142;2023-02-12T03:54:00;99776.88;;;0.63;54.93
12215;BME280;6170;42.206;24.142;2023-02-12T03:56:31;99775.56;;;0.69;54.87
12215;BME280;6170;42.206;24.142;2023-02-12T03:58:59;99779.34;;;0.54;55.38
12215;BME280;6170;42.206;24.142;2023-02-12T04:01:26;99772.03;;;0.46;56.42
12215;BME280;6170;42.206;24.142;2023-02-12T04:03:56;99774.16;;;0.41;55.62
12215;BME280;6170;42.206;24.142;2023-02-12T04:06:24;99783.84;;;0.64;55.63
12215;BME280;6170;42.206;24.142;2023-02-12T04:08:52;99782.53;;;0.70;56.27
12215;BME280;6170;42.206;24.142;2023-02-12T04:11:29;99785.44;;;0.43;58.37
12215;BME280;6170;42.206;24.142;2023-02-12T04:14:11;99774.84;;;0.67;56.82
12215;BME280;6170;42.206;24.142;2023-02-12T04:16:44;99781.09;;;0.66;56.98
12215;BME280;6170;42.206;24.142;2023-02-12T04:19:16;99819.41;;;0.94;55.12
12215;BME280;6170;42.206;24.142;2023-02-12T04:21:54;99789.66;;;0.92;55.16
12215;BME280;6170;42.206;24.142;2023-02-12T04:24:32;99780.31;;;0.87;55.27
12215;BME280;6170;42.206;24.142;2023-02-12T04:27:07;99792.44;;;1.12;55.15
12215;BME280;6170;42.206;24.142;2023-02-12T04:29:41;99772.53;;;1.08;55.06
12215;BME280;6170;42.206;24.142;2023-02-12T04:32:16;99790.78;;;1.22;54.37
12215;BME280;6170;42.206;24.142;2023-02-12T04:34:50;99794.38;;;1.10;56.07
12215;BME280;6170;42.206;24.142;2023-02-12T04:37:20;99807.09;;;1.16;55.05
12215;BME280;6170;42.206;24.142;2023-02-12T04:39:50;99794.28;;;1.23;55.79
12215;BME280;6170;42.206;24.142;2023-02-12T04:42:18;99804.09;;;1.21;54.89
12215;BME280;6170;42.206;24.142;2023-02-12T04:44:45;99797.41;;;1.28;54.11
12215;BME280;6170;42.206;24.142;2023-02-12T04:47:12;99790.31;;;1.40;54.71
12215;BME280;6170;42.206;24.142;2023-02-12T04:49:39;99799.69;;;1.44;55.11
12215;BME280;6170;42.206;24.142;2023-02-12T04:52:08;99827.03;;;1.65;54.88
12215;BME280;6170;42.206;24.142;2023-02-12T04:54:35;99799.56;;;1.56;54.51
12215;BME280;6170;42.206;24.142;2023-02-12T04:57:02;99838.44;;;1.65;55.30
12215;BME280;6170;42.206;24.142;2023-02-12T04:59:29;99799.19;;;1.72;54.94
12215;BME280;6170;42.206;24.142;2023-02-12T05:01:56;99799.69;;;1.55;55.13
12215;BME280;6170;42.206;24.142;2023-02-12T05:04:22;99861.63;;;1.84;57.20
12215;BME280;6170;42.206;24.142;2023-02-12T05:06:49;99808.56;;;1.31;57.14
12215;BME280;6170;42.206;24.142;2023-02-12T05:09:18;99801.09;;;1.25;56.83
12215;BME280;6170;42.206;24.142;2023-02-12T05:11:45;99818.66;;;1.49;57.14
12215;BME280;6170;42.206;24.142;2023-02-12T05:14:12;99818.91;;;1.68;55.47
12215;BME280;6170;42.206;24.142;2023-02-12T05:16:39;99842.13;;;2.18;53.68
12215;BME280;6170;42.206;24.142;2023-02-12T05:19:06;99812.97;;;2.41;53.26
12215;BME280;6170;42.206;24.142;2023-02-12T05:21:34;99819.97;;;2.62;52.43
12215;BME280;6170;42.206;24.142;2023-02-12T05:24:01;99827.50;;;2.99;52.29
12215;BME280;6170;42.206;24.142;2023-02-12T05:26:29;99832.16;;;3.27;51.44
12215;BME280;6170;42.206;24.142;2023-02-12T05:28:56;99820.63;;;3.68;50.24
12215;BME280;6170;42.206;24.142;2023-02-12T05:31:23;99834.06;;;3.76;50.17
12215;BME280;6170;42.206;24.142;2023-02-12T05:33:50;99844.09;;;3.73;50.28
12215;BME280;6170;42.206;24.142;2023-02-12T05:36:18;99845.72;;;3.64;50.33
12215;BME280;6170;42.206;24.142;2023-02-12T05:38:46;99860.41;;;3.68;50.20
12215;BME280;6170;42.206;24.142;2023-02-12T05:41:14;99861.47;;;3.86;50.22
12215;BME280;6170;42.206;24.142;2023-02-12T05:43:43;99856.94;;;3.77;49.51
12215;BME280;6170;42.206;24.142;2023-02-12T05:46:10;99860.56;;;3.76;50.11
12215;BME280;6170;42.206;24.142;2023-02-12T05:48:38;99867.09;;;3.93;49.88
12215;BME280;6170;42.206;24.142;2023-02-12T05:51:06;99873.88;;;3.86;50.08
12215;BME280;6170;42.206;24.142;2023-02-12T05:53:33;99866.72;;;3.77;50.56
12215;BME280;6170;42.206;24.142;2023-02-12T05:56:11;99859.66;;;3.56;50.90
12215;BME280;6170;42.206;24.142;2023-02-12T05:58:39;99866.41;;;3.70;51.41
12215;BME280;6170;42.206;24.142;2023-02-12T06:01:14;99870.03;;;3.69;51.46
12215;BME280;6170;42.206;24.142;2023-02-12T06:03:41;99852.03;;;3.73;51.21
12215;BME280;6170;42.206;24.142;2023-02-12T06:06:08;99871.38;;;3.84;51.31
12215;BME280;6170;42.206;24.142;2023-02-12T06:08:36;99886.28;;;3.85;51.43
12215;BME280;6170;42.206;24.142;2023-02-12T06:11:05;99878.81;;;4.00;51.02
12215;BME280;6170;42.206;24.142;2023-02-12T06:13:33;99884.63;;;3.84;51.42
12215;BME280;6170;42.206;24.142;2023-02-12T06:16:00;99889.44;;;4.00;51.55
12215;BME280;6170;42.206;24.142;2023-02-12T06:18:29;99875.88;;;3.93;51.62
12215;BME280;6170;42.206;24.142;2023-02-12T06:20:56;99881.59;;;3.98;51.36
12215;BME280;6170;42.206;24.142;2023-02-12T06:23:23;99877.69;;;3.93;51.90
12215;BME280;6170;42.206;24.142;2023-02-12T06:25:54;99922.97;;;4.11;51.55
12215;BME280;6170;42.206;24.142;2023-02-12T06:28:21;99871.81;;;3.99;51.53
12215;BME280;6170;42.206;24.142;2023-02-12T06:30:48;99876.22;;;4.10;51.65
12215;BME280;6170;42.206;24.142;2023-02-12T06:33:15;99870.78;;;4.11;51.27
12215;BME280;6170;42.206;24.142;2023-02-12T06:35:43;99876.69;;;4.24;51.42
12215;BME280;6170;42.206;24.142;2023-02-12T06:38:10;99871.78;;;4.20;51.01
12215;BME280;6170;42.206;24.142;2023-02-12T06:40:37;99877.81;;;4.31;50.79
12215;BME280;6170;42.206;24.142;2023-02-12T06:43:03;99856.44;;;4.23;50.51
12215;BME280;6170;42.206;24.142;2023-02-12T06:45:30;99861.44;;;4.26;50.51
12215;BME280;6170;42.206;24.142;2023-02-12T06:47:58;99892.06;;;4.40;50.98
12215;BME280;6170;42.206;24.142;2023-02-12T06:50:25;99859.13;;;4.42;50.26
12215;BME280;6170;42.206;24.142;2023-02-12T06:52:53;99859.84;;;4.64;49.33
12215;BME280;6170;42.206;24.142;2023-02-12T06:55:20;99866.84;;;4.55;49.80
12215;BME280;6170;42.206;24.142;2023-02-12T06:57:46;99893.53;;;4.92;49.63
12215;BME280;6170;42.206;24.142;2023-02-12T07:00:13;99860.50;;;4.56;50.09
12215;BME280;6170;42.206;24.142;2023-02-12T07:02:40;99857.31;;;4.52;49.67
12215;BME280;6170;42.206;24.142;2023-02-12T07:05:07;99862.34;;;4.65;49.82
12215;BME280;6170;42.206;24.142;2023-02-12T07:07:34;99870.06;;;4.78;49.79
12215;BME280;6170;42.206;24.142;2023-02-12T07:10:03;99869.78;;;4.90;50.31
12215;BME280;6170;42.206;24.142;2023-02-12T07:12:29;99860.25;;;4.88;49.87
12215;BME280;6170;42.206;24.142;2023-02-12T07:14:58;99866.28;;;4.80;50.14
12215;BME280;6170;42.206;24.142;2023-02-12T07:17:25;99871.88;;;4.68;50.26
12215;BME280;6170;42.206;24.142;2023-02-12T07:19:52;99881.09;;;4.73;50.65
12215;BME280;6170;42.206;24.142;2023-02-12T07:22:18;99889.06;;;4.92;50.54
12215;BME280;6170;42.206;24.142;2023-02-12T07:24:46;99884.19;;;5.07;50.72
12215;BME280;6170;42.206;24.142;2023-02-12T07:27:15;99890.16;;;5.09;50.83
12215;BME280;6170;42.206;24.142;2023-02-12T07:29:41;99886.41;;;4.92;52.11
12215;BME280;6170;42.206;24.142;2023-02-12T07:32:08;99877.47;;;5.03;51.91
12215;BME280;6170;42.206;24.142;2023-02-12T07:34:35;99926.09;;;5.23;52.93
12215;BME280;6170;42.206;24.142;2023-02-12T07:37:02;99882.06;;;4.63;54.09
12215;BME280;6170;42.206;24.142;2023-02-12T07:39:28;99879.13;;;4.75;54.69
12215;BME280;6170;42.206;24.142;2023-02-12T07:41:55;99906.81;;;5.02;55.31
12215;BME280;6170;42.206;24.142;2023-02-12T07:44:24;99871.72;;;4.60;56.27
12215;BME280;6170;42.206;24.142;2023-02-12T07:46:50;99857.47;;;4.51;57.26
12215;BME280;6170;42.206;24.142;2023-02-12T07:49:19;99863.44;;;4.43;57.93
12215;BME280;6170;42.206;24.142;2023-02-12T07:51:46;99828.66;;;4.56;58.74
12215;BME280;6170;42.206;24.142;2023-02-12T07:54:13;99828.81;;;4.55;59.24
12215;BME280;6170;42.206;24.142;2023-02-12T07:56:41;99836.09;;;4.81;59.42
12215;BME280;6170;42.206;24.142;2023-02-12T07:59:13;99827.84;;;5.04;58.34
12215;BME280;6170;42.206;24.142;2023-02-12T08:01:44;99827.00;;;5.13;58.36
12215;BME280;6170;42.206;24.142;2023-02-12T08:04:13;99840.34;;;5.40;58.12
12215;BME280;6170;42.206;24.142;2023-02-12T08:06:43;99849.56;;;5.46;57.96
12215;BME280;6170;42.206;24.142;2023-02-12T08:09:12;99860.38;;;5.44;58.34
12215;BME280;6170;42.206;24.142;2023-02-12T08:11:40;99867.91;;;5.49;57.71
12215;BME280;6170;42.206;24.142;2023-02-12T08:14:08;99866.44;;;5.64;56.73
12215;BME280;6170;42.206;24.142;2023-02-12T08:16:37;99865.00;;;5.79;56.03
12215;BME280;6170;42.206;24.142;2023-02-12T08:19:06;99874.09;;;5.76;55.78
12215;BME280;6170;42.206;24.142;2023-02-12T08:21:33;99876.00;;;5.57;56.22
12215;BME280;6170;42.206;24.142;2023-02-12T08:24:00;99887.72;;;5.64;56.29
12215;BME280;6170;42.206;24.142;2023-02-12T08:26:28;99883.06;;;5.75;56.04
12215;BME280;6170;42.206;24.142;2023-02-12T08:28:57;99894.66;;;5.94;56.25
12215;BME280;6170;42.206;24.142;2023-02-12T08:31:27;99888.13;;;5.88;56.19
12215;BME280;6170;42.206;24.142;2023-02-12T08:33:55;99893.09;;;6.01;56.19
12215;BME280;6170;42.206;24.142;2023-02-12T08:36:26;99914.50;;;6.09;55.46
12215;BME280;6170;42.206;24.142;2023-02-12T08:38:53;99904.72;;;6.00;55.98
12215;BME280;6170;42.206;24.142;2023-02-12T08:41:24;99906.13;;;5.84;56.29
12215;BME280;6170;42.206;24.142;2023-02-12T08:43:53;99904.31;;;5.85;55.98
12215;BME280;6170;42.206;24.142;2023-02-12T08:46:21;99910.69;;;6.11;55.89
12215;BME280;6170;42.206;24.142;2023-02-12T08:48:51;99932.53;;;6.42;55.82
12215;BME280;6170;42.206;24.142;2023-02-12T08:51:20;99915.13;;;6.48;55.89
12215;BME280;6170;42.206;24.142;2023-02-12T08:53:51;99920.91;;;6.70;55.10
12215;BME280;6170;42.206;24.142;2023-02-12T08:56:18;99920.31;;;6.76;54.43
12215;BME280;6170;42.206;24.142;2023-02-12T08:58:46;99929.22;;;6.85;54.47
12215;BME280;6170;42.206;24.142;2023-02-12T09:01:14;99906.09;;;6.86;54.01
12215;BME280;6170;42.206;24.142;2023-02-12T09:03:42;99922.81;;;6.96;53.76
12215;BME280;6170;42.206;24.142;2023-02-12T09:06:09;99962.84;;;6.86;54.41
12215;BME280;6170;42.206;24.142;2023-02-12T09:08:37;99898.06;;;6.68;54.39
12215;BME280;6170;42.206;24.142;2023-02-12T09:11:07;99937.59;;;6.90;53.94
12215;BME280;6170;42.206;24.142;2023-02-12T09:13:35;99983.13;;;6.97;54.55
12215;BME280;6170;42.206;24.142;2023-02-12T09:16:03;99927.03;;;6.53;54.61
12215;BME280;6170;42.206;24.142;2023-02-12T09:18:30;99940.88;;;6.57;55.05
12215;BME280;6170;42.206;24.142;2023-02-12T09:21:00;99938.97;;;6.94;54.81
12215;BME280;6170;42.206;24.142;2023-02-12T09:23:27;99932.88;;;7.37;53.40
12215;BME280;6170;42.206;24.142;2023-02-12T09:25:54;99929.53;;;7.17;53.68
12215;BME280;6170;42.206;24.142;2023-02-12T09:28:22;99931.34;;;7.17;53.45
12215;BME280;6170;42.206;24.142;2023-02-12T09:30:49;99915.00;;;7.12;53.32
12215;BME280;6170;42.206;24.142;2023-02-12T09:33:16;99923.91;;;7.20;53.93
12215;BME280;6170;42.206;24.142;2023-02-12T09:35:43;99920.16;;;7.31;53.16
12215;BME280;6170;42.206;24.142;2023-02-12T09:38:09;99931.88;;;7.38;53.39
12215;BME280;6170;42.206;24.142;2023-02-12T09:40:43;99933.91;;;7.88;52.70
12215;BME280;6170;42.206;24.142;2023-02-12T09:43:17;99939.47;;;8.28;51.19
12215;BME280;6170;42.206;24.142;2023-02-12T09:45:51;99974.41;;;8.61;51.54
12215;BME280;6170;42.206;24.142;2023-02-12T09:48:41;99943.84;;;8.03;51.29
12215;BME280;6170;42.206;24.142;2023-02-12T09:51:11;99942.75;;;8.40;50.01
12215;BME280;6170;42.206;24.142;2023-02-12T09:53:41;99946.63;;;9.03;49.82
12215;BME280;6170;42.206;24.142;2023-02-12T09:56:14;99937.38;;;8.32;50.71
12215;BME280;6170;42.206;24.142;2023-02-12T09:58:45;99943.44;;;8.16;51.18
12215;BME280;6170;42.206;24.142;2023-02-12T10:01:16;99936.28;;;7.65;51.70
12215;BME280;6170;42.206;24.142;2023-02-12T10:03:43;99957.53;;;7.57;52.81
12215;BME280;6170;42.206;24.142;2023-02-12T10:06:13;99936.56;;;7.62;52.26
12215;BME280;6170;42.206;24.142;2023-02-12T10:08:50;99941.28;;;7.68;52.47
12215;BME280;6170;42.206;24.142;2023-02-12T10:11:45;99931.66;;;7.14;53.33
12215;BME280;6170;42.206;24.142;2023-02-12T10:14:28;99930.78;;;7.49;53.10
12215;BME280;6170;42.206;24.142;2023-02-12T10:17:07;99941.91;;;7.44;52.59
12215;BME280;6170;42.206;24.142;2023-02-12T10:19:55;99936.28;;;7.91;51.96
12215;BME280;6170;42.206;24.142;2023-02-12T10:22:30;99920.84;;;7.77;52.37
12215;BME280;6170;42.206;24.142;2023-02-12T10:25:08;99946.25;;;8.14;51.86
12215;BME280;6170;42.206;24.142;2023-02-12T10:27:40;99936.06;;;7.84;52.09
12215;BME280;6170;42.206;24.142;2023-02-12T10:30:19;99948.31;;;7.95;52.19
12215;BME280;6170;42.206;24.142;2023-02-12T10:32:50;99947.38;;;8.04;51.31
12215;BME280;6170;42.206;24.142;2023-02-12T10:35:20;100000.47;;;7.89;52.48
12215;BME280;6170;42.206;24.142;2023-02-12T10:37:52;99995.50;;;7.94;52.17
12215;BME280;6170;42.206;24.142;2023-02-12T10:40:23;99949.97;;;7.52;52.86
12215;BME280;6170;42.206;24.142;2023-02-12T10:42:53;99932.38;;;7.59;52.13
12215;BME280;6170;42.206;24.142;2023-02-12T10:45:24;99942.50;;;7.30;52.72
12215;BME280;6170;42.206;24.142;2023-02-12T10:48:02;99950.94;;;7.26;53.18
12215;BME280;6170;42.206;24.142;2023-02-12T10:50:39;99958.25;;;7.23;53.32
12215;BME280;6170;42.206;24.142;2023-02-12T10:53:14;99951.75;;;7.26;53.49
12215;BME280;6170;42.206;24.142;2023-02-12T10:55:43;99970.59;;;7.25;53.67
12215;BME280;6170;42.206;24.142;2023-02-12T10:58:18;99937.06;;;7.22;53.63
12215;BME280;6170;42.206;24.142;2023-02-12T11:00:46;99957.72;;;7.20;53.57
12215;BME280;6170;42.206;24.142;2023-02-12T11:03:27;99955.34;;;7.35;53.59
12215;BME280;6170;42.206;24.142;2023-02-12T11:05:54;99943.59;;;7.45;53.17
12215;BME280;6170;42.206;24.142;2023-02-12T11:08:30;99940.94;;;7.28;53.16
12215;BME280;6170;42.206;24.142;2023-02-12T11:11:07;99960.25;;;7.83;52.39
12215;BME280;6170;42.206;24.142;2023-02-12T11:13:35;99942.47;;;7.48;52.44
12215;BME280;6170;42.206;24.142;2023-02-12T11:16:02;99963.78;;;7.65;52.12
12215;BME280;6170;42.206;24.142;2023-02-12T11:18:32;99986.75;;;7.84;52.47
12215;BME280;6170;42.206;24.142;2023-02-12T11:21:03;99972.88;;;7.37;52.70
12215;BME280;6170;42.206;24.142;2023-02-12T11:23:32;99959.84;;;7.34;52.42
12215;BME280;6170;42.206;24.142;2023-02-12T11:26:00;99965.34;;;7.76;51.80
12215;BME280;6170;42.206;24.142;2023-02-12T11:28:29;99979.66;;;7.93;51.68
12215;BME280;6170;42.206;24.142;2023-02-12T11:30:57;99981.59;;;8.08;51.08
12215;BME280;6170;42.206;24.142;2023-02-12T11:33:31;99968.91;;;8.10;52.16
12215;BME280;6170;42.206;24.142;2023-02-12T11:36:01;99972.75;;;8.34;51.12
12215;BME280;6170;42.206;24.142;2023-02-12T11:38:33;99966.91;;;8.30;51.11
12215;BME280;6170;42.206;24.142;2023-02-12T11:41:20;99969.94;;;8.35;50.60
12215;BME280;6170;42.206;24.142;2023-02-12T11:43:49;99971.53;;;8.28;51.42
12215;BME280;6170;42.206;24.142;2023-02-12T11:46:19;99972.53;;;8.27;50.81
12215;BME280;6170;42.206;24.142;2023-02-12T11:48:48;99969.13;;;8.43;51.17
12215;BME280;6170;42.206;24.142;2023-02-12T11:51:21;100016.75;;;8.47;50.92
12215;BME280;6170;42.206;24.142;2023-02-12T11:53:51;99979.03;;;8.25;51.35
12215;BME280;6170;42.206;24.142;2023-02-12T11:56:19;99973.00;;;8.23;51.12
12215;BME280;6170;42.206;24.142;2023-02-12T11:58:47;99975.50;;;8.50;51.49
12215;BME280;6170;42.206;24.142;2023-02-12T12:01:18;99980.63;;;8.09;51.24
12215;BME280;6170;42.206;24.142;2023-02-12T12:03:53;99979.59;;;7.85;52.55
12215;BME280;6170;42.206;24.142;2023-02-12T12:06:26;99972.09;;;7.88;52.26
12215;BME280;6170;42.206;24.142;2023-02-12T12:09:01;99978.44;;;8.31;50.65
12215;BME280;6170;42.206;24.142;2023-02-12T12:11:36;99990.59;;;8.07;51.63
12215;BME280;6170;42.206;24.142;2023-02-12T12:14:08;99987.69;;;8.19;51.17
12215;BME280;6170;42.206;24.142;2023-02-12T12:16:43;99993.06;;;8.27;51.16
12215;BME280;6170;42.206;24.142;2023-02-12T12:19:37;99975.31;;;8.18;51.57
12215;BME280;6170;42.206;24.142;2023-02-12T12:22:39;99984.19;;;8.44;50.34
12215;BME280;6170;42.206;24.142;2023-02-12T12:25:17;100006.69;;;8.75;50.51
12215;BME280;6170;42.206;24.142;2023-02-12T12:27:54;99988.84;;;8.84;50.67
12215;BME280;6170;42.206;24.142;2023-02-12T12:30:44;99988.66;;;8.43;50.32
12215;BME280;6170;42.206;24.142;2023-02-12T12:33:16;99986.53;;;8.55;50.10
12215;BME280;6170;42.206;24.142;2023-02-12T12:35:56;99999.34;;;8.43;51.08
12215;BME280;6170;42.206;24.142;2023-02-12T12:38:34;100011.09;;;8.92;50.54
12215;BME280;6170;42.206;24.142;2023-02-12T12:41:09;100014.69;;;9.25;50.13
12215;BME280;6170;42.206;24.142;2023-02-12T12:43:49;99991.53;;;8.92;49.66
12215;BME280;6170;42.206;24.142;2023-02-12T12:46:33;100016.72;;;8.81;49.92
12215;BME280;6170;42.206;24.142;2023-02-12T12:49:24;100005.81;;;8.67;50.29
12215;BME280;6170;42.206;24.142;2023-02-12T12:52:06;100018.59;;;8.89;49.61
12215;BME280;6170;42.206;24.142;2023-02-12T12:54:52;100012.56;;;8.45;51.02
12215;BME280;6170;42.206;24.142;2023-02-12T12:57:34;100017.63;;;8.56;51.16
12215;BME280;6170;42.206;24.142;2023-02-12T13:00:19;100021.53;;;8.18;51.41
12215;BME280;6170;42.206;24.142;2023-02-12T13:03:09;100022.13;;;7.86;51.37
12215;BME280;6170;42.206;24.142;2023-02-12T13:05:54;100023.25;;;8.01;51.87
12215;BME280;6170;42.206;24.142;2023-02-12T13:08:38;100023.00;;;8.12;51.74
12215;BME280;6170;42.206;24.142;2023-02-12T13:11:13;100038.88;;;8.14;51.94
12215;BME280;6170;42.206;24.142;2023-02-12T13:13:46;100022.91;;;7.96;51.89
12215;BME280;6170;42.206;24.142;2023-02-12T13:16:20;100029.22;;;7.95;51.94
12215;BME280;6170;42.206;24.142;2023-02-12T13:18:57;100024.50;;;7.72;52.12
12215;BME280;6170;42.206;24.142;2023-02-12T13:21:36;100042.13;;;7.82;52.22
12215;BME280;6170;42.206;24.142;2023-02-12T13:24:18;100030.47;;;7.83;53.05
12215;BME280;6170;42.206;24.142;2023-02-12T13:26:51;100032.91;;;7.77;52.67
12215;BME280;6170;42.206;24.142;2023-02-12T13:29:23;100021.00;;;7.71;52.94
12215;BME280;6170;42.206;24.142;2023-02-12T13:31:54;99987.81;;;7.30;53.08
12215;BME280;6170;42.206;24.142;2023-02-12T13:34:23;100042.13;;;7.64;53.15
12215;BME280;6170;42.206;24.142;2023-02-12T13:36:53;100023.00;;;7.51;53.48